sensor_id;sensor_type;location;lat;lon;timestamp;temperature;humidity
43862;DHT22;29510;52.140;5.034;2023-08-21T00:08:15;17.40;1.00
43862;DHT22;29510;52.140;5.034;2023-08-21T00:18:15;17.40;6.30
43862;DHT22;29510;52.140;5.034;2023-08-21T00:28:16;17.40;9.30
43862;DHT22;29510;52.140;5.034;2023-08-21T00:38:17;17.50;23.20
43862;DHT22;29510;52.140;5.034;2023-08-21T00:48:18;17.60;27.90
43862;DHT22;29510;52.140;5.034;2023-08-21T00:58:19;17.60;19.30
43862;DHT22;29510;52.140;5.034;2023-08-21T01:08:30;17.40;19.40
43862;DHT22;29510;52.140;5.034;2023-08-21T01:18:33;17.40;27.80
43862;DHT22;29510;52.140;5.034;2023-08-21T01:28:35;17.30;34.30
43862;DHT22;29510;52.140;5.034;2023-08-21T01:38:35;17.30;37.30
43862;DHT22;29510;52.140;5.034;2023-08-21T01:48:36;17.20;38.60
43862;DHT22;29510;52.140;5.034;2023-08-21T01:58:37;17.20;41.00
43862;DHT22;29510;52.140;5.034;2023-08-21T02:08:37;17.10;41.90
43862;DHT22;29510;52.140;5.034;2023-08-21T02:18:38;17.00;46.90
43862;DHT22;29510;52.140;5.034;2023-08-21T02:28:38;17.00;48.70
43862;DHT22;29510;52.140;5.034;2023-08-21T02:38:39;16.90;55.10
43862;DHT22;29510;52.140;5.034;2023-08-21T02:48:40;16.80;63.60
43862;DHT22;29510;52.140;5.034;2023-08-21T02:58:40;16.80;53.10
43862;DHT22;29510;52.140;5.034;2023-08-21T03:08:41;16.70;64.40
43862;DHT22;29510;52.140;5.034;2023-08-21T03:19:00;16.60;66.60
43862;DHT22;29510;52.140;5.034;2023-08-21T03:29:01;16.50;65.20
43862;DHT22;29510;52.140;5.034;2023-08-21T03:39:02;16.50;75.50
43862;DHT22;29510;52.140;5.034;2023-08-21T03:49:02;16.40;71.40
43862;DHT22;29510;52.140;5.034;2023-08-21T03:59:03;16.20;76.80
43862;DHT22;29510;52.140;5.034;2023-08-21T04:09:03;16.20;70.40
43862;DHT22;29510;52.140;5.034;2023-08-21T04:19:06;16.10;79.00
43862;DHT22;29510;52.140;5.034;2023-08-21T04:29:07;16.10;90.10
43862;DHT22;29510;52.140;5.034;2023-08-21T04:39:07;16.20;93.10
43862;DHT22;29510;52.140;5.034;2023-08-21T04:49:09;16.10;96.90
43862;DHT22;29510;52.140;5.034;2023-08-21T04:59:10;16.10;97.70
43862;DHT22;29510;52.140;5.034;2023-08-21T05:09:10;16.10;97.60
43862;DHT22;29510;52.140;5.034;2023-08-21T05:19:11;16.10;99.90
43862;DHT22;29510;52.140;5.034;2023-08-21T05:29:11;16.10;99.90
43862;DHT22;29510;52.140;5.034;2023-08-21T05:39:12;16.20;99.90
43862;DHT22;29510;52.140;5.034;2023-08-21T05:49:13;16.40;99.90
43862;DHT22;29510;52.140;5.034;2023-08-21T05:59:26;16.60;99.90
43862;DHT22;29510;52.140;5.034;2023-08-21T06:09:28;17.10;99.90
43862;DHT22;29510;52.140;5.034;2023-08-21T06:19:30;17.60;98.40
43862;DHT22;29510;52.140;5.034;2023-08-21T06:29:30;17.80;99.90
43862;DHT22;29510;52.140;5.034;2023-08-21T06:39:31;18.10;94.80
43862;DHT22;29510;52.140;5.034;2023-08-21T06:49:31;18.70;1.00
43862;DHT22;29510;52.140;5.034;2023-08-21T06:59:32;19.00;1.00
43862;DHT22;29510;52.140;5.034;2023-08-21T07:09:36;19.20;1.00
43862;DHT22;29510;52.140;5.034;2023-08-21T07:19:36;19.50;1.00
43862;DHT22;29510;52.140;5.034;2023-08-21T07:29:37;19.60;1.00
43862;DHT22;29510;52.140;5.034;2023-08-21T07:39:37;20.00;1.00
43862;DHT22;29510;52.140;5.034;2023-08-21T07:49:38;20.20;1.00
43862;DHT22;29510;52.140;5.034;2023-08-21T07:59:38;20.30;1.00
43862;DHT22;29510;52.140;5.034;2023-08-21T08:09:39;20.60;1.00
43862;DHT22;29510;52.140;5.034;2023-08-21T08:19:40;21.00;1.00
43862;DHT22;29510;52.140;5.034;2023-08-21T08:29:40;21.20;1.00
43862;DHT22;29510;52.140;5.034;2023-08-21T08:39:41;21.70;1.00
43862;DHT22;29510;52.140;5.034;2023-08-21T08:49:41;22.20;1.00
43862;DHT22;29510;52.140;5.034;2023-08-21T08:59:42;22.70;1.00
43862;DHT22;29510;52.140;5.034;2023-08-21T09:09:47;23.10;1.00
43862;DHT22;29510;52.140;5.034;2023-08-21T09:19:49;23.30;1.00
43862;DHT22;29510;52.140;5.034;2023-08-21T09:29:50;23.70;1.00
43862;DHT22;29510;52.140;5.034;2023-08-21T09:39:50;24.30;1.00
43862;DHT22;29510;52.140;5.034;2023-08-21T09:49:52;24.80;1.00
43862;DHT22;29510;52.140;5.034;2023-08-21T09:59:53;25.10;1.00
43862;DHT22;29510;52.140;5.034;2023-08-21T10:09:56;25.40;1.00
43862;DHT22;29510;52.140;5.034;2023-08-21T10:20:03;26.00;1.00
43862;DHT22;29510;52.140;5.034;2023-08-21T10:30:15;25.80;1.00
43862;DHT22;29510;52.140;5.034;2023-08-21T10:40:22;25.60;1.00
43862;DHT22;29510;52.140;5.034;2023-08-21T10:50:24;25.60;1.00
43862;DHT22;29510;52.140;5.034;2023-08-21T11:00:25;25.10;1.00
43862;DHT22;29510;52.140;5.034;2023-08-21T11:10:31;25.70;1.00
43862;DHT22;29510;52.140;5.034;2023-08-21T11:20:33;25.60;1.00
43862;DHT22;29510;52.140;5.034;2023-08-21T11:30:34;26.10;1.00
43862;DHT22;29510;52.140;5.034;2023-08-21T11:40:36;26.50;1.00
43862;DHT22;29510;52.140;5.034;2023-08-21T11:50:36;26.50;1.00
43862;DHT22;29510;52.140;5.034;2023-08-21T12:00:39;26.70;1.00
43862;DHT22;29510;52.140;5.034;2023-08-21T12:10:40;27.20;1.00
43862;DHT22;29510;52.140;5.034;2023-08-21T12:20:40;26.60;1.00
43862;DHT22;29510;52.140;5.034;2023-08-21T12:30:41;27.10;1.00
43862;DHT22;29510;52.140;5.034;2023-08-21T12:40:42;26.50;1.00
43862;DHT22;29510;52.140;5.034;2023-08-21T12:50:42;27.00;1.00
43862;DHT22;29510;52.140;5.034;2023-08-21T13:00:43;27.40;1.00
43862;DHT22;29510;52.140;5.034;2023-08-21T13:10:43;27.70;1.00
43862;DHT22;29510;52.140;5.034;2023-08-21T13:20:44;27.60;1.00
43862;DHT22;29510;52.140;5.034;2023-08-21T13:30:44;27.70;1.00
43862;DHT22;29510;52.140;5.034;2023-08-21T13:40:45;27.10;1.00
43862;DHT22;29510;52.140;5.034;2023-08-21T13:50:45;27.10;1.00
43862;DHT22;29510;52.140;5.034;2023-08-21T14:00:46;27.10;1.00
43862;DHT22;29510;52.140;5.034;2023-08-21T14:10:46;27.50;1.00
43862;DHT22;29510;52.140;5.034;2023-08-21T14:20:47;27.00;1.00
43862;DHT22;29510;52.140;5.034;2023-08-21T14:30:47;27.00;1.00
43862;DHT22;29510;52.140;5.034;2023-08-21T14:40:48;26.90;1.00
43862;DHT22;29510;52.140;5.034;2023-08-21T14:50:49;27.10;1.00
43862;DHT22;29510;52.140;5.034;2023-08-21T15:00:53;26.50;1.00
43862;DHT22;29510;52.140;5.034;2023-08-21T15:10:54;26.40;1.00
43862;DHT22;29510;52.140;5.034;2023-08-21T15:20:55;26.30;1.00
43862;DHT22;29510;52.140;5.034;2023-08-21T15:30:55;26.00;1.00
43862;DHT22;29510;52.140;5.034;2023-08-21T15:40:56;26.00;1.00
43862;DHT22;29510;52.140;5.034;2023-08-21T15:50:56;25.80;1.00
43862;DHT22;29510;52.140;5.034;2023-08-21T16:00:58;25.60;1.00
43862;DHT22;29510;52.140;5.034;2023-08-21T16:10:58;25.50;1.00
43862;DHT22;29510;52.140;5.034;2023-08-21T16:20:59;25.20;1.00
43862;DHT22;29510;52.140;5.034;2023-08-21T16:31:00;25.10;1.00
43862;DHT22;29510;52.140;5.034;2023-08-21T16:41:01;24.80;1.00
43862;DHT22;29510;52.140;5.034;2023-08-21T16:51:02;24.50;1.00
43862;DHT22;29510;52.140;5.034;2023-08-21T17:01:02;24.20;1.00
43862;DHT22;29510;52.140;5.034;2023-08-21T17:11:03;24.00;1.00
43862;DHT22;29510;52.140;5.034;2023-08-21T17:21:03;23.50;1.00
43862;DHT22;29510;52.140;5.034;2023-08-21T17:31:04;23.50;1.00
43862;DHT22;29510;52.140;5.034;2023-08-21T17:41:04;23.10;1.00
43862;DHT22;29510;52.140;5.034;2023-08-21T17:51:08;23.10;1.00
43862;DHT22;29510;52.140;5.034;2023-08-21T18:01:08;22.90;1.00
43862;DHT22;29510;52.140;5.034;2023-08-21T18:11:09;22.70;1.00
43862;DHT22;29510;52.140;5.034;2023-08-21T18:21:10;22.60;1.00
43862;DHT22;29510;52.140;5.034;2023-08-21T18:31:10;22.40;1.00
43862;DHT22;29510;52.140;5.034;2023-08-21T18:41:11;22.10;1.00
43862;DHT22;29510;52.140;5.034;2023-08-21T18:51:11;21.80;1.00
43862;DHT22;29510;52.140;5.034;2023-08-21T19:01:12;21.50;1.00
43862;DHT22;29510;52.140;5.034;2023-08-21T19:11:13;21.10;1.00
43862;DHT22;29510;52.140;5.034;2023-08-21T19:21:13;20.80;1.00
43862;DHT22;29510;52.140;5.034;2023-08-21T19:31:14;20.50;1.00
43862;DHT22;29510;52.140;5.034;2023-08-21T19:41:14;20.30;1.00
43862;DHT22;29510;52.140;5.034;2023-08-21T19:51:15;20.00;1.00
43862;DHT22;29510;52.140;5.034;2023-08-21T20:01:15;19.80;1.00
43862;DHT22;29510;52.140;5.034;2023-08-21T20:11:16;19.60;1.00
43862;DHT22;29510;52.140;5.034;2023-08-21T20:21:17;19.40;1.00
43862;DHT22;29510;52.140;5.034;2023-08-21T20:31:19;19.20;1.00
43862;DHT22;29510;52.140;5.034;2023-08-21T20:41:20;19.00;1.00
43862;DHT22;29510;52.140;5.034;2023-08-21T20:51:20;18.80;1.00
43862;DHT22;29510;52.140;5.034;2023-08-21T21:01:21;18.60;1.00
43862;DHT22;29510;52.140;5.034;2023-08-21T21:11:22;18.60;1.00
43862;DHT22;29510;52.140;5.034;2023-08-21T21:21:22;18.60;1.00
43862;DHT22;29510;52.140;5.034;2023-08-21T21:31:23;18.50;1.00
43862;DHT22;29510;52.140;5.034;2023-08-21T21:41:23;18.40;1.00
43862;DHT22;29510;52.140;5.034;2023-08-21T21:51:24;18.30;1.00
43862;DHT22;29510;52.140;5.034;2023-08-21T22:01:24;18.20;1.00
43862;DHT22;29510;52.140;5.034;2023-08-21T22:11:25;18.20;1.00
43862;DHT22;29510;52.140;5.034;2023-08-21T22:21:25;18.10;1.00
43862;DHT22;29510;52.140;5.034;2023-08-21T22:31:26;18.10;1.00
43862;DHT22;29510;52.140;5.034;2023-08-21T22:41:27;18.10;1.00
43862;DHT22;29510;52.140;5.034;2023-08-21T22:51:27;18.00;1.00
43862;DHT22;29510;52.140;5.034;2023-08-21T23:01:28;18.10;5.60
43862;DHT22;29510;52.140;5.034;2023-08-21T23:11:28;18.10;11.40
43862;DHT22;29510;52.140;5.034;2023-08-21T23:21:29;18.20;13.80
43862;DHT22;29510;52.140;5.034;2023-08-21T23:31:33;18.30;13.60
43862;DHT22;29510;52.140;5.034;2023-08-21T23:41:34;18.30;23.80
43862;DHT22;29510;52.140;5.034;2023-08-21T23:51:34;18.30;27.30
